Skagen, Denmark
Current Conditions -  °F | °C
As of 5:20 AM on Monday 24 Nov 2014 (Local Time) from ESGP Reporting Station
Light Rain Light Rain  
Wind Chill:   Ceiling: 1100
Heat Index:   Visibility: 2.8mi
Dew Point:   Wind: 17mph
Humidity: 87%   Direction: 170°S
Pressure: 29.77"   Gusts: NA
Location:  57.72°N, 10.58°E
Report Text: ESGP 240420Z 17015KT 4500 -RA SCT008 OVC011 08/06 Q1008
Loading
Personal Weather Stations






























Interactive Weather Map New forecast layout! Learn more

10-Day Weather Forecast

Advertisements
Track Severe Weather on mobile